Time;durP1;ratioP1;P1;durP2;ratioP2;P2;SDS_P1;SDS_P2;PMS_P1;PMS_P2;Temp;Humidity;BMP_temperature;BMP_pressure;BME280_temperature;BME280_humidity;BME280_pressure;Samples;Min_cycle;Max_cycle;Signal;HPM_P1;HPM_P2
2022/03/08 00:01:17;;;;;;;13.10;7.17;;;4.90;39.80;;;;;;5048242;28;20467;-85
2022/03/08 00:03:44;;;;;;;11.03;7.93;;;4.90;39.90;;;;;;5049449;28;21036;-86
2022/03/08 00:06:11;;;;;;;19.93;8.43;;;4.60;40.40;;;;;;5046188;28;20482;-85
2022/03/08 00:08:40;;;;;;;15.57;8.23;;;4.50;40.60;;;;;;5048461;28;20479;-86
2022/03/08 00:11:08;;;;;;;11.73;6.63;;;4.60;40.60;;;;;;5056578;28;20686;-85
2022/03/08 00:13:35;;;;;;;10.60;6.73;;;4.60;40.90;;;;;;5065998;28;20456;-86
2022/03/08 00:16:02;;;;;;;8.13;6.00;;;4.60;40.60;;;;;;5061879;28;20450;-86
2022/03/08 00:18:29;;;;;;;13.93;7.43;;;4.70;40.40;;;;;;5049299;28;20439;-86
2022/03/08 00:20:56;;;;;;;15.13;7.60;;;4.80;40.00;;;;;;5054038;28;21013;-84
2022/03/08 00:23:23;;;;;;;17.30;7.90;;;4.70;39.70;;;;;;5066704;28;20486;-85
2022/03/08 00:25:51;;;;;;;15.93;8.20;;;4.70;40.10;;;;;;5068555;28;20466;-84
2022/03/08 00:28:18;;;;;;;12.40;6.80;;;4.70;40.00;;;;;;5033217;28;21166;-86
2022/03/08 00:30:45;;;;;;;14.63;8.40;;;4.70;39.80;;;;;;5056978;28;20490;-85
2022/03/08 00:33:13;;;;;;;11.63;6.67;;;4.60;39.80;;;;;;5065379;28;20452;-85
2022/03/08 00:35:40;;;;;;;13.10;8.30;;;4.50;39.90;;;;;;5064498;28;20548;-86
2022/03/08 00:38:07;;;;;;;12.87;7.97;;;4.50;40.30;;;;;;5063078;28;21017;-85
2022/03/08 00:40:34;;;;;;;10.17;5.70;;;4.50;40.80;;;;;;5047412;28;20507;-86
2022/03/08 00:43:02;;;;;;;8.43;5.87;;;4.40;40.90;;;;;;5059140;28;20471;-85
2022/03/08 00:45:29;;;;;;;17.73;7.53;;;4.50;40.80;;;;;;5035460;28;20959;-85
2022/03/08 00:47:56;;;;;;;19.03;7.97;;;4.20;40.80;;;;;;5044716;28;20913;-86
2022/03/08 00:50:26;;;;;;;9.63;5.80;;;4.10;41.50;;;;;;5061093;28;20494;-86
2022/03/08 00:52:55;;;;;;;8.57;5.87;;;4.20;41.00;;;;;;5078490;28;20455;-86
2022/03/08 00:55:23;;;;;;;10.73;6.87;;;4.30;40.80;;;;;;5047969;28;20893;-85
2022/03/08 00:57:51;;;;;;;11.20;7.37;;;4.30;40.70;;;;;;5046806;28;20451;-85
2022/03/08 01:00:22;;;;;;;11.97;5.87;;;4.30;40.60;;;;;;5084656;28;20522;-85
2022/03/08 01:02:49;;;;;;;10.60;6.87;;;4.30;40.60;;;;;;5067081;28;20516;-83
2022/03/08 01:05:19;;;;;;;14.27;8.10;;;4.40;40.50;;;;;;5082613;28;20456;-85
2022/03/08 01:07:46;;;;;;;11.30;7.13;;;4.40;40.30;;;;;;5066710;28;20986;-85
2022/03/08 01:10:16;;;;;;;10.40;6.73;;;4.40;40.30;;;;;;5048753;28;21025;-85
2022/03/08 01:12:44;;;;;;;13.53;8.30;;;4.40;40.60;;;;;;5068010;28;20460;-85
2022/03/08 01:15:12;;;;;;;15.47;8.37;;;4.40;40.90;;;;;;5073103;28;20981;-85
2022/03/08 01:17:43;;;;;;;17.60;8.30;;;4.30;41.20;;;;;;5037528;28;20447;-85
2022/03/08 01:20:12;;;;;;;12.63;8.40;;;4.30;42.70;;;;;;5049887;28;20487;-85
2022/03/08 01:22:39;;;;;;;25.93;9.27;;;4.30;43.60;;;;;;5065768;28;20470;-85
2022/03/08 01:25:07;;;;;;;10.80;6.90;;;4.30;44.00;;;;;;5045503;28;20844;-86
2022/03/08 01:27:34;;;;;;;11.73;7.57;;;3.80;44.70;;;;;;5082511;28;20840;-86
2022/03/08 01:30:01;;;;;;;14.90;7.17;;;3.40;45.60;;;;;;5065018;28;20447;-86
2022/03/08 01:32:28;;;;;;;10.13;6.23;;;2.70;46.60;;;;;;5049360;28;20463;-86
2022/03/08 01:34:57;;;;;;;12.10;7.87;;;2.80;46.70;;;;;;5079943;28;20464;-84
2022/03/08 01:37:24;;;;;;;10.60;6.00;;;2.40;46.80;;;;;;5066167;28;20483;-87
2022/03/08 01:39:52;;;;;;;12.70;6.87;;;2.10;47.40;;;;;;5031705;28;20621;-85
2022/03/08 01:42:23;;;;;;;20.77;10.70;;;2.10;47.60;;;;;;5066243;28;20479;-85
2022/03/08 01:44:51;;;;;;;18.60;9.10;;;2.10;47.20;;;;;;5080905;28;20444;-84
2022/03/08 01:47:20;;;;;;;13.07;8.20;;;2.40;47.20;;;;;;5050146;28;20467;-85
2022/03/08 01:49:48;;;;;;;14.40;7.43;;;2.70;46.40;;;;;;5061342;28;20810;-85
2022/03/08 01:52:17;;;;;;;10.10;5.80;;;2.70;45.60;;;;;;5064929;28;20476;-86
2022/03/08 01:54:45;;;;;;;10.63;6.40;;;3.10;45.10;;;;;;5082776;28;20456;-86
2022/03/08 01:57:13;;;;;;;12.53;7.23;;;3.20;44.40;;;;;;5081306;28;20966;-86
2022/03/08 01:59:40;;;;;;;11.13;6.40;;;3.40;44.40;;;;;;5082294;28;20467;-86
2022/03/08 02:02:08;;;;;;;14.80;7.63;;;3.50;44.70;;;;;;5066353;28;20459;-86
2022/03/08 02:04:35;;;;;;;9.93;6.03;;;3.60;44.00;;;;;;5063466;28;20451;-87
2022/03/08 02:07:04;;;;;;;12.93;6.63;;;3.70;43.30;;;;;;5081096;28;20475;-84
2022/03/08 02:09:33;;;;;;;8.73;6.47;;;3.80;42.90;;;;;;5067691;28;20451;-86
2022/03/08 02:12:00;;;;;;;14.03;6.30;;;3.80;42.60;;;;;;5063933;28;20467;-85
2022/03/08 02:14:28;;;;;;;28.03;8.37;;;3.80;42.50;;;;;;5081679;28;20550;-85
2022/03/08 02:16:55;;;;;;;19.77;9.43;;;3.80;42.50;;;;;;5081846;28;20455;-85
2022/03/08 02:19:22;;;;;;;17.33;7.53;;;3.80;42.80;;;;;;5065268;28;21309;-86
2022/03/08 02:21:53;;;;;;;18.13;9.80;;;3.80;43.10;;;;;;5051329;28;20486;-86
2022/03/08 02:24:20;;;;;;;12.67;7.37;;;3.70;43.30;;;;;;5055961;28;20454;-85
2022/03/08 02:26:47;;;;;;;15.03;9.80;;;3.60;43.30;;;;;;5066286;28;20758;-85
2022/03/08 02:29:15;;;;;;;12.70;6.57;;;3.50;43.40;;;;;;5066334;28;20790;-86
2022/03/08 02:31:42;;;;;;;18.53;7.43;;;3.30;44.80;;;;;;5088658;28;20475;-85
2022/03/08 02:34:09;;;;;;;11.00;6.73;;;2.80;45.50;;;;;;5051624;28;20516;-85
2022/03/08 02:36:36;;;;;;;15.33;8.63;;;2.10;47.40;;;;;;5066600;28;20443;-86
2022/03/08 02:39:04;;;;;;;18.80;8.63;;;2.30;47.40;;;;;;5065371;28;20496;-85
2022/03/08 02:41:31;;;;;;;17.20;8.87;;;2.40;46.80;;;;;;5084651;28;20476;-85
2022/03/08 02:43:58;;;;;;;15.60;8.33;;;2.60;46.80;;;;;;5084908;28;20447;-87
2022/03/08 02:46:26;;;;;;;18.10;6.67;;;2.80;46.20;;;;;;5067579;28;20520;-86
2022/03/08 02:48:52;;;;;;;13.73;7.60;;;2.90;45.30;;;;;;5084715;28;20509;-86
2022/03/08 02:51:20;;;;;;;12.80;8.67;;;3.00;44.90;;;;;;5067136;28;20464;-86
2022/03/08 02:53:47;;;;;;;15.40;7.17;;;3.00;44.20;;;;;;5082565;28;21037;-87
2022/03/08 02:56:16;;;;;;;14.47;8.47;;;2.80;45.00;;;;;;5049199;28;20440;-86
2022/03/08 02:58:42;;;;;;;11.57;6.00;;;2.40;45.90;;;;;;5067929;28;20529;-86
2022/03/08 03:01:09;;;;;;;14.03;8.77;;;1.80;47.50;;;;;;5065843;28;20474;-86
2022/03/08 03:03:36;;;;;;;14.20;7.00;;;1.60;48.60;;;;;;5069030;28;20447;-87
2022/03/08 03:06:03;;;;;;;10.03;6.50;;;1.60;48.50;;;;;;5084518;28;20451;-86
2022/03/08 03:08:30;;;;;;;19.43;7.00;;;1.60;48.80;;;;;;5085715;28;20486;-86
2022/03/08 03:10:57;;;;;;;13.03;6.23;;;1.60;48.80;;;;;;5066073;28;20486;-87
2022/03/08 03:13:26;;;;;;;15.10;7.30;;;1.70;48.40;;;;;;5068511;28;20474;-86
2022/03/08 03:15:53;;;;;;;9.87;5.80;;;1.80;48.20;;;;;;5047138;28;20452;-87
2022/03/08 03:18:20;;;;;;;16.10;7.90;;;2.20;47.40;;;;;;5065188;28;20451;-87
2022/03/08 03:20:47;;;;;;;10.60;7.00;;;2.40;46.60;;;;;;5031064;28;20822;-87
2022/03/08 03:23:15;;;;;;;11.00;7.43;;;2.60;46.00;;;;;;5033240;28;20451;-86
2022/03/08 03:25:42;;;;;;;9.57;6.70;;;2.80;45.50;;;;;;5081879;28;20451;-86
2022/03/08 03:28:09;;;;;;;12.93;8.40;;;2.90;45.10;;;;;;5054270;28;20468;-86
2022/03/08 03:30:37;;;;;;;16.17;6.53;;;3.00;45.00;;;;;;5049020;28;20559;-86
2022/03/08 03:33:04;;;;;;;11.00;7.07;;;3.00;44.90;;;;;;5082512;28;21305;-88
2022/03/08 03:35:31;;;;;;;11.57;6.47;;;3.10;44.60;;;;;;5068686;28;20455;-86
2022/03/08 03:37:59;;;;;;;15.57;7.90;;;3.20;44.50;;;;;;5049265;28;20445;-84
2022/03/08 03:40:26;;;;;;;15.43;8.67;;;3.20;44.50;;;;;;5050464;28;20507;-86
2022/03/08 03:42:52;;;;;;;12.37;7.17;;;3.20;44.20;;;;;;5065115;28;20463;-86
2022/03/08 03:45:19;;;;;;;8.60;6.93;;;3.00;45.00;;;;;;5083264;28;20462;-87
2022/03/08 03:47:48;;;;;;;10.57;7.50;;;3.00;44.80;;;;;;5065334;28;20483;-85
2022/03/08 03:50:15;;;;;;;13.23;8.03;;;2.90;44.70;;;;;;5048506;28;20459;-86
2022/03/08 03:52:42;;;;;;;11.43;7.47;;;2.80;45.00;;;;;;5052369;28;21002;-86
2022/03/08 03:55:09;;;;;;;19.23;5.80;;;2.80;45.00;;;;;;5065586;28;20810;-86
2022/03/08 03:57:37;;;;;;;13.07;6.57;;;2.60;45.00;;;;;;5082553;28;20803;-86
2022/03/08 04:00:07;;;;;;;13.27;7.87;;;2.20;46.20;;;;;;5081585;28;20458;-86
2022/03/08 04:02:38;;;;;;;11.77;6.63;;;2.00;47.30;;;;;;5065595;28;20577;-86
2022/03/08 04:05:07;;;;;;;13.80;7.90;;;2.10;47.70;;;;;;5063221;28;20455;-86
2022/03/08 04:07:34;;;;;;;11.20;6.43;;;2.30;46.90;;;;;;5049896;28;20463;-86
2022/03/08 04:10:01;;;;;;;12.53;6.77;;;2.50;46.30;;;;;;5066291;28;20464;-86
2022/03/08 04:12:28;;;;;;;13.93;7.03;;;2.50;45.80;;;;;;5083449;28;20464;-86
2022/03/08 04:14:56;;;;;;;9.83;7.10;;;2.60;45.40;;;;;;5084521;28;20618;-86
2022/03/08 04:17:23;;;;;;;11.17;6.50;;;2.70;45.40;;;;;;5064391;28;20483;-86
2022/03/08 04:19:50;;;;;;;9.63;5.60;;;2.80;45.20;;;;;;5065261;28;20945;-88
2022/03/08 04:22:18;;;;;;;11.37;6.60;;;2.80;44.80;;;;;;5064943;28;20491;-86
2022/03/08 04:24:45;;;;;;;11.13;6.70;;;2.90;44.50;;;;;;5081176;28;20862;-86
2022/03/08 04:27:12;;;;;;;14.40;6.63;;;2.90;44.10;;;;;;5084431;28;20818;-86
2022/03/08 04:29:39;;;;;;;10.57;7.40;;;2.90;43.80;;;;;;5066341;28;20455;-86
2022/03/08 04:32:07;;;;;;;13.87;7.70;;;2.90;43.90;;;;;;5078864;28;21294;-87
2022/03/08 04:34:34;;;;;;;13.77;6.33;;;2.90;43.80;;;;;;5066205;28;20456;-86
2022/03/08 04:37:01;;;;;;;16.17;7.90;;;2.80;44.10;;;;;;5069003;28;20954;-87
2022/03/08 04:39:29;;;;;;;14.07;8.33;;;2.80;44.00;;;;;;5069198;28;20470;-86
2022/03/08 04:41:56;;;;;;;12.93;6.67;;;2.70;44.30;;;;;;5065829;28;20486;-86
2022/03/08 04:44:23;;;;;;;11.57;7.23;;;2.50;44.90;;;;;;5038344;28;20447;-86
2022/03/08 04:46:50;;;;;;;13.63;7.80;;;2.30;44.90;;;;;;5066512;28;20448;-86
2022/03/08 04:49:17;;;;;;;21.13;10.90;;;2.20;45.00;;;;;;5074761;28;20459;-86
2022/03/08 04:51:44;;;;;;;39.80;18.73;;;2.10;45.40;;;;;;5065384;28;20485;-86
2022/03/08 04:54:11;;;;;;;36.83;16.80;;;2.00;46.00;;;;;;5081291;28;20455;-86
2022/03/08 04:56:39;;;;;;;33.80;17.10;;;2.00;46.60;;;;;;5046491;28;20458;-86
2022/03/08 04:59:06;;;;;;;17.33;9.40;;;2.10;46.70;;;;;;5055835;28;20502;-86
2022/03/08 05:01:33;;;;;;;30.43;11.97;;;2.20;46.10;;;;;;5049660;28;20478;-86
2022/03/08 05:04:00;;;;;;;14.77;7.87;;;2.30;45.90;;;;;;5033183;28;20491;-86
2022/03/08 05:06:30;;;;;;;27.40;9.70;;;2.20;45.70;;;;;;5050253;28;20475;-86
2022/03/08 05:08:57;;;;;;;19.00;10.23;;;2.10;46.00;;;;;;5065541;28;21166;-86
2022/03/08 05:11:24;;;;;;;34.23;15.87;;;2.10;45.90;;;;;;5084682;28;20475;-87
2022/03/08 05:13:53;;;;;;;33.17;13.80;;;2.00;45.80;;;;;;5049225;28;20455;-86
2022/03/08 05:16:20;;;;;;;51.37;20.30;;;2.00;46.30;;;;;;5077705;28;20452;-85
2022/03/08 05:18:47;;;;;;;41.40;19.57;;;2.00;45.80;;;;;;5057754;28;20473;-88
2022/03/08 05:21:13;;;;;;;31.43;20.10;;;2.00;45.80;;;;;;5082846;28;20485;-86
2022/03/08 05:23:40;;;;;;;14.73;7.83;;;2.00;45.90;;;;;;5087348;28;20467;-87
2022/03/08 05:26:08;;;;;;;13.73;7.50;;;1.90;45.50;;;;;;5069365;28;20491;-87
2022/03/08 05:28:35;;;;;;;16.83;8.37;;;1.80;46.50;;;;;;5060384;28;20479;-87
2022/03/08 05:31:03;;;;;;;19.80;9.60;;;1.60;47.40;;;;;;5078722;28;20475;-86
2022/03/08 05:33:30;;;;;;;17.97;8.93;;;1.80;47.10;;;;;;5062774;28;20907;-88
2022/03/08 05:35:57;;;;;;;25.23;11.30;;;2.00;46.60;;;;;;5081719;28;20458;-87
2022/03/08 05:38:24;;;;;;;20.03;8.60;;;2.10;46.00;;;;;;5077623;28;21023;-86
2022/03/08 05:40:51;;;;;;;11.50;7.50;;;2.20;45.50;;;;;;5062790;28;21285;-85
2022/03/08 05:43:18;;;;;;;15.50;8.10;;;2.10;45.70;;;;;;5084728;28;20713;-86
2022/03/08 05:45:45;;;;;;;13.30;7.77;;;1.50;47.00;;;;;;5080195;28;20541;-86
2022/03/08 05:48:13;;;;;;;21.07;10.20;;;1.40;47.80;;;;;;5074870;28;20995;-85
2022/03/08 05:50:40;;;;;;;14.43;7.47;;;1.40;48.20;;;;;;5040232;28;20489;-87
2022/03/08 05:53:07;;;;;;;14.63;7.57;;;1.40;48.30;;;;;;5052507;28;20527;-87
2022/03/08 05:55:34;;;;;;;11.50;7.03;;;1.30;48.10;;;;;;5046183;28;20819;-87
2022/03/08 05:58:01;;;;;;;21.03;9.83;;;1.50;47.20;;;;;;5063269;28;20447;-87
2022/03/08 06:00:28;;;;;;;12.97;7.53;;;1.70;47.00;;;;;;5080976;28;20866;-87
2022/03/08 06:02:55;;;;;;;6.30;5.20;;;1.70;46.40;;;;;;5070379;28;20533;-86
2022/03/08 06:05:23;;;;;;;12.43;8.00;;;1.80;46.70;;;;;;5069440;28;20448;-86
2022/03/08 06:07:50;;;;;;;13.33;8.10;;;1.90;46.30;;;;;;5086690;28;20458;-87
2022/03/08 06:10:17;;;;;;;11.53;6.37;;;2.10;45.80;;;;;;5051006;28;20466;-87
2022/03/08 06:12:44;;;;;;;16.97;8.03;;;2.00;46.00;;;;;;5085265;28;20946;-86
2022/03/08 06:15:11;;;;;;;10.33;6.00;;;1.80;46.50;;;;;;5067925;28;20532;-87
2022/03/08 06:17:38;;;;;;;10.00;5.70;;;1.70;46.80;;;;;;5045495;28;20970;-86
2022/03/08 06:20:07;;;;;;;8.07;6.20;;;2.00;46.60;;;;;;5045667;28;20466;-87
2022/03/08 06:22:35;;;;;;;20.23;9.30;;;2.10;45.60;;;;;;5046742;28;20470;-86
2022/03/08 06:25:02;;;;;;;13.83;8.50;;;2.20;45.30;;;;;;5082152;28;20780;-87
2022/03/08 06:27:30;;;;;;;14.27;7.63;;;2.20;45.10;;;;;;5065576;28;20512;-86
2022/03/08 06:29:57;;;;;;;9.70;7.27;;;2.20;45.30;;;;;;5066674;28;20482;-89
2022/03/08 06:32:24;;;;;;;16.93;7.90;;;2.20;45.40;;;;;;5048076;28;21028;-87
2022/03/08 06:34:51;;;;;;;9.70;8.40;;;2.20;45.10;;;;;;5080605;28;20460;-90
2022/03/08 06:37:18;;;;;;;15.83;9.27;;;2.20;45.00;;;;;;5083373;28;20505;-87
2022/03/08 06:39:47;;;;;;;14.43;8.07;;;2.30;45.00;;;;;;5064319;28;20497;-88
2022/03/08 06:42:14;;;;;;;14.97;7.13;;;2.30;45.00;;;;;;5065516;28;20928;-87
2022/03/08 06:44:41;;;;;;;10.70;7.87;;;2.40;45.20;;;;;;5048290;28;20448;-88
2022/03/08 06:47:10;;;;;;;12.07;7.40;;;2.40;45.20;;;;;;5080884;28;20459;-87
2022/03/08 06:49:39;;;;;;;11.43;8.03;;;2.30;45.50;;;;;;5058891;28;20477;-89
2022/03/08 06:52:07;;;;;;;13.80;8.03;;;2.30;45.60;;;;;;5047761;28;20478;-87
2022/03/08 06:54:34;;;;;;;22.17;10.60;;;2.20;45.60;;;;;;5082642;28;20452;-84
2022/03/08 06:57:03;;;;;;;17.93;9.67;;;2.20;46.70;;;;;;5065317;28;20835;-86
2022/03/08 06:59:30;;;;;;;16.93;8.53;;;2.20;47.40;;;;;;5082103;28;20943;-87
2022/03/08 07:01:57;;;;;;;15.50;8.57;;;2.20;47.40;;;;;;5057811;28;20467;-86
2022/03/08 07:04:24;;;;;;;18.77;8.70;;;2.30;47.10;;;;;;5053392;28;20455;-83
2022/03/08 07:06:51;;;;;;;27.87;8.17;;;2.40;47.00;;;;;;5046060;28;20452;-86
2022/03/08 07:09:18;;;;;;;18.40;7.90;;;2.50;46.70;;;;;;5081154;28;20490;-88
2022/03/08 07:11:46;;;;;;;13.83;8.30;;;2.60;46.10;;;;;;5041603;28;20844;-87
2022/03/08 07:14:15;;;;;;;11.67;6.83;;;2.60;45.80;;;;;;5044481;28;20452;-87
2022/03/08 07:16:42;;;;;;;12.43;7.83;;;2.70;45.80;;;;;;5080655;28;20962;-88
2022/03/08 07:19:09;;;;;;;17.80;8.67;;;2.60;46.40;;;;;;5044067;28;20536;-88
2022/03/08 07:21:37;;;;;;;17.43;9.00;;;2.70;46.30;;;;;;5061933;28;20844;-87
2022/03/08 07:24:04;;;;;;;13.03;7.70;;;2.80;46.30;;;;;;5047708;28;20781;-89
2022/03/08 07:26:31;;;;;;;10.57;8.30;;;2.80;46.10;;;;;;5059669;28;20468;-88
2022/03/08 07:28:58;;;;;;;11.00;8.30;;;2.80;46.80;;;;;;5079964;28;20919;-87
2022/03/08 07:31:27;;;;;;;13.50;8.97;;;2.80;46.80;;;;;;5043107;28;20519;-88
2022/03/08 07:33:55;;;;;;;14.00;7.70;;;2.80;46.90;;;;;;5082739;28;20451;-87
2022/03/08 07:36:23;;;;;;;10.60;6.43;;;2.90;47.10;;;;;;5084189;28;20536;-89
2022/03/08 07:38:50;;;;;;;12.43;7.20;;;2.90;46.80;;;;;;5056734;28;20963;-86
2022/03/08 07:41:17;;;;;;;11.70;7.33;;;2.90;47.10;;;;;;5082500;28;20483;-87
2022/03/08 07:43:44;;;;;;;11.40;6.60;;;2.80;46.60;;;;;;5046647;28;20517;-87
2022/03/08 07:46:11;;;;;;;11.83;7.43;;;2.90;46.60;;;;;;5032546;28;20460;-89
2022/03/08 07:48:39;;;;;;;14.10;7.90;;;2.90;46.70;;;;;;5063154;28;20472;-87
2022/03/08 07:51:06;;;;;;;12.50;7.80;;;2.90;46.80;;;;;;5082716;28;20483;-87
2022/03/08 07:53:34;;;;;;;13.80;7.17;;;3.00;46.70;;;;;;5075518;28;20467;-90
2022/03/08 07:56:01;;;;;;;9.03;5.70;;;3.00;46.60;;;;;;5028088;28;20564;-88
2022/03/08 07:58:28;;;;;;;15.90;6.27;;;3.10;46.60;;;;;;5061745;28;20475;-90
2022/03/08 08:00:55;;;;;;;11.30;5.70;;;3.10;46.60;;;;;;5048902;28;20998;-88
2022/03/08 08:03:22;;;;;;;9.93;5.80;;;3.20;46.60;;;;;;5082792;28;20517;-87
2022/03/08 08:05:51;;;;;;;7.90;5.70;;;3.20;46.60;;;;;;5065380;28;20794;-87
2022/03/08 08:08:18;;;;;;;9.17;6.80;;;3.20;46.50;;;;;;5081867;28;20462;-90
2022/03/08 08:10:45;;;;;;;8.87;5.97;;;3.30;46.40;;;;;;5048574;28;20482;-92
2022/03/08 08:13:12;;;;;;;10.33;6.63;;;3.30;46.30;;;;;;5033539;28;20859;-88
2022/03/08 08:15:39;;;;;;;16.53;6.83;;;3.30;46.20;;;;;;5061631;28;20451;-87
2022/03/08 08:18:06;;;;;;;12.10;6.83;;;3.30;46.30;;;;;;5045383;28;20462;-90
2022/03/08 08:20:33;;;;;;;12.33;8.77;;;3.40;46.30;;;;;;5065593;28;20505;-87
2022/03/08 08:23:02;;;;;;;11.03;8.07;;;3.50;46.30;;;;;;5080455;28;20455;-86
2022/03/08 08:25:29;;;;;;;12.73;7.77;;;3.50;46.20;;;;;;5045180;28;20678;-89
2022/03/08 08:27:56;;;;;;;14.70;7.53;;;3.50;45.90;;;;;;5047578;28;20497;-88
2022/03/08 08:30:23;;;;;;;12.13;7.40;;;3.50;46.00;;;;;;5083071;28;20522;-87
2022/03/08 08:32:50;;;;;;;15.17;7.50;;;3.50;46.10;;;;;;5081691;28;20463;-87
2022/03/08 08:35:18;;;;;;;11.53;8.03;;;3.60;46.10;;;;;;5029056;28;20459;-87
2022/03/08 08:37:46;;;;;;;13.90;9.07;;;3.60;46.10;;;;;;5047436;28;20803;-88
2022/03/08 08:40:14;;;;;;;17.10;8.80;;;3.70;46.50;;;;;;5068479;28;20451;-87
2022/03/08 08:42:42;;;;;;;16.00;7.83;;;3.70;45.50;;;;;;5079568;28;20559;-86
2022/03/08 08:45:10;;;;;;;12.13;7.60;;;3.80;45.60;;;;;;5066314;28;21053;-89
2022/03/08 08:47:38;;;;;;;16.07;8.20;;;3.80;45.50;;;;;;5073151;28;20476;-87
2022/03/08 08:50:05;;;;;;;14.47;8.50;;;3.80;46.00;;;;;;5077712;28;20495;-86
2022/03/08 08:52:33;;;;;;;19.20;9.00;;;3.90;46.20;;;;;;5064171;28;20470;-88
2022/03/08 08:55:00;;;;;;;12.87;8.70;;;3.90;46.30;;;;;;5048486;28;20466;-86
2022/03/08 08:57:29;;;;;;;13.80;8.80;;;4.00;46.30;;;;;;5049603;28;20467;-88
2022/03/08 08:59:56;;;;;;;20.30;9.60;;;4.10;46.50;;;;;;5048671;28;20460;-86
2022/03/08 09:02:23;;;;;;;17.17;10.13;;;4.20;46.30;;;;;;5084150;28;21060;-87
2022/03/08 09:04:49;;;;;;;16.40;10.37;;;4.20;46.20;;;;;;5084535;28;20463;-86
2022/03/08 09:07:16;;;;;;;20.13;10.60;;;4.00;47.20;;;;;;5047184;28;20451;-86
2022/03/08 09:09:43;;;;;;;24.17;10.20;;;4.00;47.40;;;;;;5066626;28;20473;-86
2022/03/08 09:12:10;;;;;;;23.80;11.80;;;4.20;47.50;;;;;;5063247;28;20475;-86
2022/03/08 09:14:38;;;;;;;17.87;9.77;;;4.40;47.50;;;;;;5068625;28;20454;-87
2022/03/08 09:17:05;;;;;;;21.23;10.23;;;4.60;47.50;;;;;;5033149;28;20463;-87
2022/03/08 09:19:32;;;;;;;18.83;9.93;;;4.70;47.40;;;;;;5081736;28;20458;-86
2022/03/08 09:21:59;;;;;;;17.13;10.63;;;4.80;47.60;;;;;;5061267;28;20634;-86
2022/03/08 09:24:26;;;;;;;15.97;9.63;;;5.00;47.40;;;;;;5081046;28;20451;-86
2022/03/08 09:26:53;;;;;;;12.90;9.00;;;4.90;47.40;;;;;;5038870;28;21162;-87
2022/03/08 09:29:20;;;;;;;21.37;10.07;;;5.00;47.40;;;;;;5064430;28;20464;-85
2022/03/08 09:31:52;;;;;;;17.20;10.10;;;5.20;47.40;;;;;;5067028;28;20865;-86
2022/03/08 09:34:19;;;;;;;15.80;8.73;;;5.40;47.10;;;;;;5066983;28;20878;-86
2022/03/08 09:36:46;;;;;;;13.10;7.90;;;5.60;46.90;;;;;;5064600;28;20444;-86
2022/03/08 09:39:13;;;;;;;13.83;8.80;;;5.80;46.80;;;;;;5052484;28;20466;-86
2022/03/08 09:41:41;;;;;;;13.37;7.80;;;6.00;46.60;;;;;;5084191;28;20472;-85
2022/03/08 09:44:12;;;;;;;14.70;8.13;;;6.30;46.40;;;;;;5082743;28;20979;-86
2022/03/08 09:46:39;;;;;;;17.27;9.40;;;6.10;46.20;;;;;;5052280;28;20459;-87
2022/03/08 09:49:07;;;;;;;11.27;6.97;;;6.30;46.10;;;;;;5068989;28;20447;-88
2022/03/08 09:51:37;;;;;;;10.40;5.77;;;6.60;44.80;;;;;;5085543;28;20482;-87
2022/03/08 09:54:06;;;;;;;17.93;9.07;;;6.80;43.40;;;;;;5067736;28;20466;-86
2022/03/08 09:56:33;;;;;;;12.30;8.07;;;7.10;42.90;;;;;;5058940;28;20462;-88
2022/03/08 09:59:00;;;;;;;14.60;7.70;;;7.50;41.80;;;;;;5049595;28;20883;-89
2022/03/08 10:01:27;;;;;;;7.67;6.13;;;7.80;41.00;;;;;;5054712;28;20471;-87
2022/03/08 10:03:54;;;;;;;11.70;6.67;;;8.20;41.00;;;;;;5063845;28;20452;-90
2022/03/08 10:06:23;;;;;;;10.20;6.17;;;8.40;39.30;;;;;;5052284;28;20444;-86
2022/03/08 10:08:50;;;;;;;13.33;6.97;;;8.60;39.00;;;;;;5064302;28;20494;-86
2022/03/08 10:11:18;;;;;;;7.80;5.70;;;8.90;38.30;;;;;;5049742;28;20479;-86
2022/03/08 10:13:49;;;;;;;8.90;5.77;;;8.80;36.40;;;;;;5068029;28;20891;-86
2022/03/08 10:16:22;;;;;;;17.10;8.00;;;8.60;36.90;;;;;;5037171;28;20451;-86
2022/03/08 10:18:51;;;;;;;9.00;5.30;;;8.70;37.50;;;;;;5056492;28;20460;-87
2022/03/08 10:21:32;;;;;;;14.67;6.93;;;8.80;36.00;;;;;;5070783;28;21248;-86
2022/03/08 10:24:01;;;;;;;9.47;5.57;;;9.10;35.20;;;;;;5048916;28;20812;-87
2022/03/08 10:26:28;;;;;;;11.00;7.63;;;9.30;34.40;;;;;;5083864;28;20451;-85
2022/03/08 10:28:58;;;;;;;8.37;5.70;;;9.50;33.60;;;;;;5083579;28;20451;-86
2022/03/08 10:31:25;;;;;;;10.17;5.13;;;9.60;33.30;;;;;;5053923;28;20492;-87
2022/03/08 10:33:52;;;;;;;7.33;5.37;;;9.70;33.10;;;;;;5048741;28;20447;-86
2022/03/08 10:36:25;;;;;;;10.20;5.33;;;9.70;33.10;;;;;;5066806;28;20459;-88
2022/03/08 10:39:12;;;;;;;6.70;4.70;;;9.80;32.60;;;;;;5050676;28;21046;-86
2022/03/08 10:41:47;;;;;;;10.23;7.40;;;10.10;32.20;;;;;;5049893;28;20471;-87
2022/03/08 10:44:14;;;;;;;8.23;5.43;;;9.80;31.60;;;;;;5050800;28;20514;-87
2022/03/08 10:46:41;;;;;;;7.17;5.63;;;10.00;31.90;;;;;;5049695;28;20461;-83
2022/03/08 10:49:12;;;;;;;9.40;5.43;;;10.40;30.90;;;;;;5047849;28;21856;-84
2022/03/08 10:51:40;;;;;;;7.60;5.00;;;10.60;30.90;;;;;;5051485;28;20570;-86
2022/03/08 10:54:15;;;;;;;8.90;5.23;;;10.70;29.60;;;;;;5035008;28;21181;-86
2022/03/08 10:56:45;;;;;;;6.67;5.13;;;10.70;30.00;;;;;;5068769;28;20455;-86
2022/03/08 10:59:15;;;;;;;8.37;4.50;;;11.10;29.90;;;;;;5051234;28;20454;-85
2022/03/08 11:01:43;;;;;;;7.70;4.40;;;11.40;29.30;;;;;;5063896;28;20574;-84
2022/03/08 11:04:21;;;;;;;6.83;4.57;;;11.20;27.80;;;;;;5081245;28;20551;-84
2022/03/08 11:06:50;;;;;;;6.60;4.53;;;11.50;28.10;;;;;;5065402;28;20548;-84
2022/03/08 11:09:19;;;;;;;9.50;4.70;;;11.50;27.80;;;;;;5031518;28;21046;-85
2022/03/08 11:11:47;;;;;;;6.10;4.40;;;11.50;27.40;;;;;;5064476;28;20476;-85
2022/03/08 11:14:14;;;;;;;8.63;5.37;;;11.50;27.70;;;;;;5062509;28;20452;-83
2022/03/08 11:16:41;;;;;;;6.70;4.83;;;11.50;27.10;;;;;;5050063;28;21130;-83
2022/03/08 11:19:11;;;;;;;7.83;4.47;;;11.60;27.60;;;;;;5083114;28;20460;-83
2022/03/08 11:21:38;;;;;;;9.87;4.77;;;11.70;27.40;;;;;;5064514;28;20986;-84
2022/03/08 11:24:07;;;;;;;6.10;4.50;;;11.60;27.60;;;;;;5029538;28;20550;-83
2022/03/08 11:26:36;;;;;;;4.63;3.43;;;11.80;27.00;;;;;;5050368;28;20930;-84
2022/03/08 11:29:05;;;;;;;6.00;4.03;;;11.90;26.30;;;;;;5062118;28;20468;-84
2022/03/08 11:31:35;;;;;;;5.90;4.70;;;12.00;27.10;;;;;;5065385;28;20467;-84
2022/03/08 11:34:09;;;;;;;11.07;4.60;;;12.30;27.10;;;;;;5046413;28;20529;-85
2022/03/08 11:36:38;;;;;;;6.60;4.97;;;12.80;26.20;;;;;;5034337;28;20450;-84
2022/03/08 11:39:22;;;;;;;5.23;4.57;;;12.70;26.00;;;;;;5046497;28;20568;-86
2022/03/08 11:41:52;;;;;;;6.90;4.70;;;12.70;25.70;;;;;;5061482;28;20475;-85
2022/03/08 11:44:32;;;;;;;8.77;4.83;;;12.70;26.30;;;;;;5082561;28;20869;-85
2022/03/08 11:47:10;;;;;;;5.40;4.10;;;12.60;25.90;;;;;;5082324;28;20447;-86
2022/03/08 11:49:43;;;;;;;10.60;7.07;;;12.80;26.10;;;;;;5035912;28;20459;-83
2022/03/08 11:52:12;;;;;;;7.33;5.10;;;13.10;26.50;;;;;;5049851;28;20963;-86
2022/03/08 11:54:39;;;;;;;6.10;5.40;;;12.90;25.60;;;;;;5061369;28;20451;-85
2022/03/08 11:57:07;;;;;;;10.27;5.23;;;12.90;25.90;;;;;;5043771;28;20463;-84
2022/03/08 11:59:34;;;;;;;11.90;6.00;;;13.10;25.80;;;;;;5057654;28;20451;-86
2022/03/08 12:02:03;;;;;;;5.90;4.17;;;13.60;26.20;;;;;;5062261;28;20803;-85
2022/03/08 12:04:44;;;;;;;6.17;5.00;;;13.80;25.80;;;;;;5034426;28;20664;-85
2022/03/08 12:07:25;;;;;;;6.47;4.90;;;14.10;25.20;;;;;;5065006;28;20444;-86
2022/03/08 12:10:25;;;;;;;8.97;5.70;;;14.20;25.00;;;;;;5034211;28;20497;-86
2022/03/08 12:12:55;;;;;;;8.37;5.20;;;14.10;25.10;;;;;;5082776;28;20476;-86
2022/03/08 12:15:22;;;;;;;9.87;5.40;;;13.30;26.30;;;;;;5048606;28;21247;-86
2022/03/08 12:18:17;;;;;;;7.37;5.33;;;13.50;25.10;;;;;;5028584;28;20452;-85
2022/03/08 12:20:44;;;;;;;8.40;4.80;;;13.70;25.80;;;;;;5045538;28;20517;-86
2022/03/08 12:23:11;;;;;;;8.13;5.37;;;13.90;24.50;;;;;;5047212;28;20475;-85
2022/03/08 12:25:38;;;;;;;6.67;4.90;;;13.70;24.50;;;;;;5053710;28;20701;-86
2022/03/08 12:28:07;;;;;;;10.73;5.70;;;14.20;25.50;;;;;;5073496;28;20459;-86
2022/03/08 12:30:41;;;;;;;5.47;4.40;;;14.50;24.00;;;;;;5066779;28;20468;-87
2022/03/08 12:33:09;;;;;;;5.60;4.00;;;14.60;23.10;;;;;;5062633;28;20447;-85
2022/03/08 12:35:36;;;;;;;5.30;4.13;;;14.20;22.90;;;;;;5079382;28;20460;-85
2022/03/08 12:38:03;;;;;;;7.70;5.00;;;14.10;23.20;;;;;;5047948;28;20455;-84
2022/03/08 12:40:35;;;;;;;5.07;4.17;;;14.30;23.10;;;;;;5039037;28;20475;-86
2022/03/08 12:43:07;;;;;;;6.17;5.20;;;14.30;23.50;;;;;;5081477;28;20458;-86
2022/03/08 12:45:37;;;;;;;10.23;7.40;;;14.60;23.10;;;;;;5060114;28;20881;-85
2022/03/08 12:48:07;;;;;;;5.83;4.70;;;14.60;22.40;;;;;;5042805;28;20443;-85
2022/03/08 12:50:35;;;;;;;6.60;4.30;;;14.70;22.70;;;;;;5060400;28;20700;-85
2022/03/08 12:53:06;;;;;;;5.00;3.77;;;14.80;21.90;;;;;;5078448;28;20470;-86